createdAt,value
2022-09-28T00:00:24.153Z,8.05
2022-09-28T00:01:25.508Z,9.07
2022-09-28T00:02:05.221Z,8.80
2022-09-28T00:02:52.335Z,8.81
2022-09-28T00:03:46.211Z,8.79
2022-09-28T00:04:40.176Z,7.19
2022-09-28T00:05:34.188Z,8.10
2022-09-28T00:06:31.173Z,9.63
2022-09-28T00:07:25.137Z,10.10
2022-09-28T00:08:12.251Z,9.61
2022-09-28T00:08:46.224Z,11.11
2022-09-28T00:09:33.158Z,8.57
2022-09-28T00:10:08.167Z,7.95
2022-09-28T00:11:02.175Z,9.16
2022-09-28T00:11:36.240Z,7.65
2022-09-28T00:12:23.152Z,7.10
2022-09-28T00:13:00.736Z,6.38
2022-09-28T00:13:42.190Z,7.56
2022-09-28T00:14:22.279Z,6.44
2022-09-28T00:15:02.155Z,6.59
2022-09-28T00:15:42.245Z,6.99
2022-09-28T00:16:26.208Z,7.56
2022-09-28T00:17:06.297Z,8.01
2022-09-28T00:17:46.154Z,6.90
2022-09-28T00:18:26.645Z,8.14
2022-09-28T00:19:06.168Z,8.79
2022-09-28T00:19:46.238Z,7.43
2022-09-28T00:20:27.162Z,6.32
2022-09-28T00:21:15.226Z,5.99
2022-09-28T00:21:55.127Z,6.97
2022-09-28T00:22:35.268Z,7.18
2022-09-28T00:23:15.124Z,5.61
2022-09-28T00:24:27.704Z,4.93
2022-09-28T00:25:23.162Z,5.81
2022-09-28T00:26:18.116Z,6.36
2022-09-28T00:27:13.135Z,5.79
2022-09-28T00:28:07.126Z,6.63
2022-09-28T00:29:01.162Z,5.63
2022-09-28T00:29:48.177Z,5.19
2022-09-28T00:30:22.704Z,6.03
2022-09-28T00:31:10.170Z,6.20
2022-09-28T00:31:44.516Z,5.70
2022-09-28T00:32:35.193Z,5.82
2022-09-28T00:33:09.204Z,5.24
2022-09-28T00:33:58.115Z,5.40
2022-09-28T00:34:32.475Z,5.70
2022-09-28T00:35:13.160Z,5.51
2022-09-28T00:35:53.204Z,5.36
2022-09-28T00:36:35.150Z,5.39
2022-09-28T00:37:22.496Z,5.38
2022-09-28T00:38:02.133Z,5.40
2022-09-28T00:38:42.833Z,5.51
2022-09-28T00:39:23.107Z,5.88
2022-09-28T00:40:06.157Z,5.68
2022-09-28T00:40:46.249Z,6.20
2022-09-28T00:41:27.250Z,6.31
2022-09-28T00:42:08.157Z,6.25
2022-09-28T00:42:48.396Z,5.68
2022-09-28T00:43:30.135Z,5.85
2022-09-28T00:44:29.186Z,5.56
2022-09-28T00:45:09.108Z,5.44
2022-09-28T00:45:56.329Z,5.38
2022-09-28T00:46:50.092Z,5.39
2022-09-28T00:48:00.117Z,6.71
2022-09-28T00:49:00.116Z,8.66
2022-09-28T00:50:12.110Z,7.16
2022-09-28T00:51:07.144Z,6.68
2022-09-28T00:52:02.157Z,6.20
2022-09-28T00:53:18.165Z,4.96
2022-09-28T00:54:13.110Z,5.96
2022-09-28T00:55:08.104Z,5.86
2022-09-28T00:56:14.159Z,5.47
2022-09-28T00:57:08.123Z,6.26
2022-09-28T00:58:07.089Z,7.13
2022-09-28T00:59:04.310Z,6.54
2022-09-28T00:59:58.071Z,6.81
2022-09-28T01:00:53.131Z,7.44
2022-09-28T01:01:35.158Z,7.53
2022-09-28T01:02:16.322Z,8.02
2022-09-28T01:02:57.119Z,8.14
2022-09-28T01:03:37.762Z,7.22
2022-09-28T01:04:18.130Z,9.34
2022-09-28T01:04:59.408Z,10.98
2022-09-28T01:05:42.100Z,9.61
2022-09-28T01:06:27.596Z,8.30
2022-09-28T01:07:08.127Z,8.66
2022-09-28T01:07:49.372Z,8.84
2022-09-28T01:08:31.112Z,8.36
2022-09-28T01:09:14.318Z,8.04
2022-09-28T01:09:55.096Z,8.02
2022-09-28T01:10:36.182Z,7.75
2022-09-28T01:11:16.066Z,8.73
2022-09-28T01:11:56.210Z,10.65
2022-09-28T01:12:36.176Z,9.63
2022-09-28T01:13:18.139Z,9.15
2022-09-28T01:14:01.068Z,9.44
2022-09-28T01:14:41.187Z,8.27
2022-09-28T01:15:22.098Z,8.21
2022-09-28T01:16:26.230Z,9.29
2022-09-28T01:17:43.205Z,7.07
2022-09-28T01:18:33.166Z,7.19
2022-09-28T01:19:28.121Z,7.40
2022-09-28T01:20:45.167Z,7.95
2022-09-28T01:21:26.099Z,7.89
2022-09-28T01:22:29.187Z,8.86
2022-09-28T01:23:30.116Z,7.61
2022-09-28T01:24:25.148Z,7.04
2022-09-28T01:25:41.085Z,5.78
2022-09-28T01:26:34.206Z,6.55
2022-09-28T01:27:36.103Z,6.93
2022-09-28T01:28:24.272Z,5.95
2022-09-28T01:29:26.124Z,6.04
2022-09-28T01:30:16.194Z,6.78
2022-09-28T01:31:06.094Z,7.95
2022-09-28T01:31:48.189Z,6.99
2022-09-28T01:32:53.089Z,6.31
2022-09-28T01:33:41.204Z,6.91
2022-09-28T01:34:31.090Z,8.04
2022-09-28T01:35:43.339Z,9.44
2022-09-28T01:36:32.070Z,7.40
2022-09-28T01:37:14.197Z,8.95
2022-09-28T01:38:01.067Z,10.54
2022-09-28T01:38:46.127Z,11.43
2022-09-28T01:39:36.072Z,10.45
2022-09-28T01:40:17.268Z,10.21
2022-09-28T01:40:58.140Z,9.63
2022-09-28T01:41:40.258Z,10.13
2022-09-28T01:42:26.071Z,10.49
2022-09-28T01:43:10.150Z,11.31
2022-09-28T01:43:56.057Z,10.71
2022-09-28T01:44:46.093Z,12.57
2022-09-28T01:45:46.104Z,12.59
2022-09-28T01:46:51.065Z,15.00
2022-09-28T01:47:48.056Z,15.80
2022-09-28T01:48:55.068Z,16.05
2022-09-28T01:49:40.116Z,14.15
2022-09-28T01:50:24.104Z,15.44
2022-09-28T01:51:02.152Z,15.27
2022-09-28T01:51:47.900Z,14.94
2022-09-28T01:52:35.061Z,16.56
2022-09-28T01:53:28.147Z,15.75
2022-09-28T01:54:06.540Z,13.79
2022-09-28T01:55:00.072Z,13.56
2022-09-28T01:55:48.079Z,14.02
2022-09-28T01:56:34.178Z,15.09
2022-09-28T01:57:29.079Z,14.05
2022-09-28T01:58:12.357Z,13.36
2022-09-28T01:59:03.049Z,14.54
2022-09-28T01:59:40.168Z,12.93
2022-09-28T02:00:29.105Z,13.69
2022-09-28T02:01:25.097Z,13.49
2022-09-28T02:02:09.720Z,10.85
2022-09-28T02:03:03.074Z,11.16
2022-09-28T02:04:00.158Z,10.64
2022-09-28T02:04:50.050Z,10.34
2022-09-28T02:05:37.121Z,10.46
2022-09-28T02:06:28.100Z,10.44
2022-09-28T02:07:09.127Z,9.52
2022-09-28T02:08:01.032Z,9.35
2022-09-28T02:08:45.125Z,10.45
2022-09-28T02:09:41.115Z,9.19
2022-09-28T02:10:26.166Z,7.65
2022-09-28T02:11:15.028Z,9.69
2022-09-28T02:12:00.081Z,9.95
2022-09-28T02:12:37.118Z,9.49
2022-09-28T02:13:28.510Z,10.01
2022-09-28T02:14:13.040Z,9.79
2022-09-28T02:14:48.156Z,9.13
2022-09-28T02:15:28.028Z,8.20
2022-09-28T02:16:40.106Z,7.81
2022-09-28T02:17:23.116Z,8.14
2022-09-28T02:17:56.788Z,8.60
2022-09-28T02:18:44.020Z,8.88
2022-09-28T02:19:19.656Z,8.26
2022-09-28T02:20:07.056Z,8.32
2022-09-28T02:20:41.765Z,7.80
2022-09-28T02:21:42.052Z,7.14
2022-09-28T02:22:36.088Z,6.46
2022-09-28T02:23:17.184Z,6.56
2022-09-28T02:24:05.054Z,7.70
2022-09-28T02:24:56.538Z,7.29
2022-09-28T02:25:41.031Z,7.78
2022-09-28T02:26:26.145Z,6.88
2022-09-28T02:27:09.023Z,6.72
2022-09-28T02:28:09.070Z,6.57
2022-09-28T02:28:43.099Z,7.64
2022-09-28T02:29:30.055Z,8.19
2022-09-28T02:30:05.888Z,8.50
2022-09-28T02:30:54.995Z,8.19
2022-09-28T02:31:28.629Z,8.06
2022-09-28T02:32:16.014Z,7.21
2022-09-28T02:32:53.531Z,6.40
2022-09-28T02:33:38.111Z,6.01
2022-09-28T02:34:12.172Z,7.49
2022-09-28T02:34:45.571Z,8.75
2022-09-28T02:35:27.028Z,8.74
2022-09-28T02:36:01.127Z,9.60
2022-09-28T02:36:34.742Z,9.98
2022-09-28T02:37:15.006Z,8.90
2022-09-28T02:37:49.041Z,8.64
2022-09-28T02:38:22.536Z,10.14
2022-09-28T02:39:05.039Z,8.77
2022-09-28T02:39:39.082Z,8.46
2022-09-28T02:40:17.522Z,8.75
2022-09-28T02:41:06.041Z,9.74
2022-09-28T02:42:04.126Z,7.80
2022-09-28T02:42:45.209Z,6.28
2022-09-28T02:43:41.036Z,6.89
2022-09-28T02:45:06.006Z,6.82
2022-09-28T02:46:26.047Z,6.69
2022-09-28T02:48:06.015Z,6.59
2022-09-28T02:49:34.074Z,6.76
2022-09-28T02:50:52.113Z,6.44
2022-09-28T02:51:27.379Z,7.13
2022-09-28T02:52:32.999Z,6.71
2022-09-28T02:53:18.126Z,6.06
2022-09-28T02:54:37.032Z,5.95
2022-09-28T02:55:16.087Z,6.84
2022-09-28T02:56:25.067Z,6.97
2022-09-28T02:57:17.087Z,5.96
2022-09-28T02:58:26.032Z,7.07
2022-09-28T02:59:31.099Z,6.90
2022-09-28T03:00:22.003Z,6.66
2022-09-28T03:01:04.277Z,5.75
2022-09-28T03:02:08.057Z,6.82
2022-09-28T03:02:51.128Z,8.42
2022-09-28T03:03:48.965Z,8.01
2022-09-28T03:05:19.100Z,6.57
2022-09-28T03:06:10.997Z,6.78
2022-09-28T03:06:55.067Z,5.86
2022-09-28T03:07:46.043Z,5.40
2022-09-28T03:08:45.054Z,5.88
2022-09-28T03:09:29.984Z,5.84
2022-09-28T03:10:46.051Z,5.56
2022-09-28T03:11:31.982Z,6.35
2022-09-28T03:12:16.070Z,5.82
2022-09-28T03:12:58.029Z,4.85
2022-09-28T03:13:38.132Z,5.04
2022-09-28T03:14:17.978Z,4.54
2022-09-28T03:15:15.075Z,4.84
2022-09-28T03:15:54.983Z,5.75
2022-09-28T03:16:35.178Z,5.99
2022-09-28T03:17:14.968Z,6.09
2022-09-28T03:17:55.309Z,6.38
2022-09-28T03:18:35.078Z,4.84
2022-09-28T03:19:15.126Z,5.24
2022-09-28T03:19:56.014Z,4.86
2022-09-28T03:20:38.066Z,4.94
2022-09-28T03:21:19.944Z,5.81
2022-09-28T03:22:00.172Z,5.79
2022-09-28T03:22:39.936Z,5.56
2022-09-28T03:23:24.708Z,6.20
2022-09-28T03:24:05.001Z,7.07
2022-09-28T03:24:45.036Z,6.16
2022-09-28T03:25:25.979Z,7.09
2022-09-28T03:26:06.046Z,7.07
2022-09-28T03:26:45.981Z,6.44
2022-09-28T03:27:26.053Z,6.36
2022-09-28T03:28:06.002Z,5.81
2022-09-28T03:28:46.058Z,5.51
2022-09-28T03:29:28.978Z,6.35
2022-09-28T03:30:10.052Z,5.55
2022-09-28T03:30:49.996Z,5.66
2022-09-28T03:31:30.098Z,6.39
2022-09-28T03:32:09.981Z,8.25
2022-09-28T03:32:50.044Z,7.10
2022-09-28T03:33:29.974Z,5.51
2022-09-28T03:34:10.073Z,6.31
2022-09-28T03:34:49.988Z,7.68
2022-09-28T03:35:30.088Z,8.55
2022-09-28T03:36:10.955Z,6.61
2022-09-28T03:36:51.044Z,6.56
2022-09-28T03:37:30.991Z,6.15
2022-09-28T03:38:11.033Z,6.03
2022-09-28T03:38:50.954Z,6.24
2022-09-28T03:39:31.129Z,7.00
2022-09-28T03:40:12.003Z,6.16
2022-09-28T03:41:00.150Z,6.10
2022-09-28T03:41:39.948Z,6.76
2022-09-28T03:42:20.029Z,6.53
2022-09-28T03:43:00.965Z,6.78
2022-09-28T03:43:41.146Z,7.21
2022-09-28T03:44:20.929Z,6.53
2022-09-28T03:45:14.995Z,6.38
2022-09-28T03:46:14.057Z,6.44
2022-09-28T03:47:07.977Z,6.64
2022-09-28T03:48:01.943Z,7.30
2022-09-28T03:48:55.959Z,8.18
2022-09-28T03:49:49.940Z,8.64
2022-09-28T03:50:36.986Z,7.05
2022-09-28T03:51:13.121Z,7.32
2022-09-28T03:51:59.953Z,8.43
2022-09-28T03:52:34.000Z,7.78
2022-09-28T03:53:20.935Z,6.85
2022-09-28T03:53:55.101Z,6.40
2022-09-28T03:54:45.730Z,7.13
2022-09-28T03:55:22.060Z,8.51
2022-09-28T03:56:02.945Z,8.48
2022-09-28T03:56:43.009Z,8.79
2022-09-28T03:57:22.963Z,7.54
2022-09-28T03:58:03.019Z,8.41
2022-09-28T03:58:42.966Z,7.74
2022-09-28T03:59:23.030Z,6.97
2022-09-28T04:00:02.960Z,7.64
2022-09-28T04:00:45.059Z,8.07
2022-09-28T04:01:25.009Z,8.43
2022-09-28T04:02:05.118Z,7.45
2022-09-28T04:02:44.904Z,8.57
2022-09-28T04:03:26.016Z,8.71
2022-09-28T04:04:06.948Z,8.34
2022-09-28T04:04:47.014Z,7.63
2022-09-28T04:05:26.921Z,6.53
2022-09-28T04:06:07.039Z,7.00
2022-09-28T04:06:46.943Z,7.51
2022-09-28T04:07:30.910Z,8.71
2022-09-28T04:08:10.918Z,6.57
2022-09-28T04:08:50.996Z,6.69
2022-09-28T04:09:30.887Z,6.00
2022-09-28T04:10:11.087Z,6.50
2022-09-28T04:10:50.923Z,7.74
2022-09-28T04:11:47.552Z,7.79
2022-09-28T04:12:30.943Z,7.71
2022-09-28T04:13:11.013Z,7.11
2022-09-28T04:13:54.951Z,6.93
2022-09-28T04:14:35.007Z,6.31
2022-09-28T04:15:15.912Z,6.51
2022-09-28T04:16:00.052Z,6.66
2022-09-28T04:16:41.080Z,8.07
2022-09-28T04:17:21.027Z,7.20
2022-09-28T04:18:00.947Z,7.84
2022-09-28T04:18:40.993Z,6.64
2022-09-28T04:19:21.882Z,7.70
2022-09-28T04:20:03.242Z,8.15
2022-09-28T04:20:42.897Z,8.70
2022-09-28T04:21:25.024Z,8.15
2022-09-28T04:22:04.907Z,7.38
2022-09-28T04:22:44.984Z,8.75
2022-09-28T04:23:25.028Z,8.65
2022-09-28T04:24:04.991Z,7.88
2022-09-28T04:24:45.904Z,7.78
2022-09-28T04:25:26.018Z,7.80
2022-09-28T04:26:05.913Z,6.84
2022-09-28T04:26:46.031Z,7.43
2022-09-28T04:27:44.895Z,7.46
2022-09-28T04:28:49.947Z,7.57
2022-09-28T04:29:43.939Z,8.91
2022-09-28T04:30:37.912Z,8.70
2022-09-28T04:31:33.983Z,5.84
2022-09-28T04:32:27.929Z,6.41
2022-09-28T04:33:22.087Z,7.09
2022-09-28T04:34:08.951Z,7.10
2022-09-28T04:34:44.375Z,6.95
2022-09-28T04:35:31.879Z,6.86
2022-09-28T04:36:06.078Z,6.60
2022-09-28T04:36:53.936Z,7.15
2022-09-28T04:37:27.989Z,7.01
2022-09-28T04:38:14.897Z,7.39
2022-09-28T04:38:53.216Z,8.46
2022-09-28T04:39:33.907Z,7.95
2022-09-28T04:40:15.166Z,6.68
2022-09-28T04:40:55.948Z,7.63
2022-09-28T04:41:35.959Z,8.97
2022-09-28T04:42:17.895Z,7.72
2022-09-28T04:43:04.027Z,8.51
2022-09-28T04:43:43.882Z,9.73
2022-09-28T04:44:23.958Z,7.53
2022-09-28T04:45:04.947Z,7.44
2022-09-28T04:45:45.014Z,7.49
2022-09-28T04:46:25.879Z,10.57
2022-09-28T04:47:05.963Z,10.79
2022-09-28T04:47:45.863Z,10.52
2022-09-28T04:48:26.518Z,12.21
2022-09-28T04:49:06.884Z,11.54
2022-09-28T04:49:46.955Z,11.10
2022-09-28T04:50:26.941Z,12.48
2022-09-28T04:51:06.983Z,12.31
2022-09-28T04:51:47.890Z,12.18
2022-09-28T04:52:27.959Z,9.94
2022-09-28T04:53:08.868Z,10.02
2022-09-28T04:53:48.988Z,10.27
2022-09-28T04:54:28.879Z,10.05
2022-09-28T04:55:09.384Z,9.70
2022-09-28T04:55:49.944Z,9.90
2022-09-28T04:56:29.956Z,9.84
2022-09-28T04:57:12.895Z,10.04
2022-09-28T04:57:52.957Z,10.46
2022-09-28T04:58:33.865Z,10.05
2022-09-28T04:59:14.095Z,10.82
2022-09-28T04:59:53.880Z,10.31
2022-09-28T05:00:35.847Z,10.73
2022-09-28T05:01:19.945Z,9.79
2022-09-28T05:01:59.987Z,10.45
2022-09-28T05:02:39.903Z,9.82
2022-09-28T05:03:20.923Z,11.45
2022-09-28T05:04:00.882Z,11.26
2022-09-28T05:04:41.177Z,11.35
2022-09-28T05:05:20.848Z,12.11
2022-09-28T05:06:01.508Z,12.25
2022-09-28T05:06:41.925Z,11.90
2022-09-28T05:07:22.047Z,10.71
2022-09-28T05:08:05.875Z,11.79
2022-09-28T05:08:48.930Z,11.48
2022-09-28T05:09:28.864Z,12.68
2022-09-28T05:10:08.925Z,14.74
2022-09-28T05:10:49.860Z,13.98
2022-09-28T05:11:29.952Z,10.70
2022-09-28T05:12:09.867Z,11.09
2022-09-28T05:12:50.007Z,10.41
2022-09-28T05:13:29.839Z,10.80
2022-09-28T05:14:10.145Z,11.30
2022-09-28T05:14:49.870Z,13.06
2022-09-28T05:15:31.013Z,10.84
2022-09-28T05:16:10.878Z,10.51
2022-09-28T05:16:51.028Z,11.21
2022-09-28T05:17:30.902Z,12.04
2022-09-28T05:18:11.979Z,10.29
2022-09-28T05:18:52.878Z,10.26
2022-09-28T05:19:34.816Z,10.61
2022-09-28T05:20:15.839Z,8.84
2022-09-28T05:20:55.919Z,8.30
2022-09-28T05:21:36.857Z,10.05
2022-09-28T05:22:16.950Z,10.33
2022-09-28T05:22:56.882Z,10.11
2022-09-28T05:23:36.979Z,10.14
2022-09-28T05:24:18.847Z,10.04
2022-09-28T05:25:00.238Z,9.94
2022-09-28T05:25:40.830Z,9.63
2022-09-28T05:26:20.960Z,8.52
2022-09-28T05:27:00.818Z,8.27
2022-09-28T05:27:40.907Z,8.94
2022-09-28T05:28:20.928Z,9.75
2022-09-28T05:29:00.915Z,9.56
2022-09-28T05:29:41.831Z,10.07
2022-09-28T05:30:22.759Z,11.29
2022-09-28T05:31:07.850Z,10.35
2022-09-28T05:31:47.961Z,10.98
2022-09-28T05:32:27.823Z,11.46
2022-09-28T05:33:08.940Z,12.07
2022-09-28T05:33:48.872Z,13.13
2022-09-28T05:34:29.056Z,14.75
2022-09-28T05:35:11.835Z,16.11
2022-09-28T05:35:55.163Z,14.31
2022-09-28T05:36:38.873Z,13.25
2022-09-28T05:37:19.183Z,13.50
2022-09-28T05:38:01.817Z,14.94
2022-09-28T05:38:41.932Z,15.82
2022-09-28T05:39:21.859Z,16.17
2022-09-28T05:40:01.988Z,14.80
2022-09-28T05:40:41.842Z,15.29
2022-09-28T05:41:21.976Z,17.92
2022-09-28T05:42:03.893Z,18.36
2022-09-28T05:42:43.916Z,19.71
2022-09-28T05:43:23.825Z,18.89
2022-09-28T05:44:04.000Z,19.00
2022-09-28T05:44:44.852Z,17.65
2022-09-28T05:45:24.924Z,15.68
2022-09-28T05:46:06.855Z,13.01
2022-09-28T05:46:46.867Z,10.04
2022-09-28T05:47:26.835Z,10.00
2022-09-28T05:48:06.914Z,10.48
2022-09-28T05:48:46.855Z,11.31
2022-09-28T05:49:29.156Z,9.94
2022-09-28T05:50:08.836Z,10.88
2022-09-28T05:50:48.900Z,11.24
2022-09-28T05:51:30.806Z,9.41
2022-09-28T05:52:10.896Z,9.39
2022-09-28T05:52:50.804Z,9.36
2022-09-28T05:53:30.921Z,10.20
2022-09-28T05:54:10.807Z,10.91
2022-09-28T05:54:50.929Z,14.81
2022-09-28T05:55:30.854Z,17.81
2022-09-28T05:56:10.892Z,13.93
2022-09-28T05:56:50.808Z,13.52
2022-09-28T05:57:30.887Z,12.36
2022-09-28T05:58:12.830Z,11.90
2022-09-28T05:58:52.865Z,10.14
2022-09-28T05:59:32.784Z,8.79
2022-09-28T06:00:13.893Z,8.79
2022-09-28T06:00:53.862Z,9.60
2022-09-28T06:01:33.923Z,10.73
2022-09-28T06:02:13.881Z,10.23
2022-09-28T06:03:08.687Z,9.00
2022-09-28T06:03:49.807Z,8.43
2022-09-28T06:04:29.864Z,9.09
2022-09-28T06:05:09.789Z,9.07
2022-09-28T06:05:49.856Z,8.81
2022-09-28T06:06:29.819Z,9.20
2022-09-28T06:07:09.904Z,9.57
2022-09-28T06:07:49.837Z,9.40
2022-09-28T06:08:29.920Z,8.89
2022-09-28T06:09:09.834Z,7.75
2022-09-28T06:09:49.876Z,9.25
2022-09-28T06:10:30.832Z,9.71
2022-09-28T06:11:12.480Z,8.56
2022-09-28T06:11:53.807Z,9.88
2022-09-28T06:12:34.007Z,11.51
2022-09-28T06:13:16.778Z,11.36
2022-09-28T06:14:00.942Z,11.80
2022-09-28T06:14:41.823Z,12.05
2022-09-28T06:15:22.932Z,11.81
2022-09-28T06:16:02.832Z,13.01
2022-09-28T06:16:43.952Z,14.54
2022-09-28T06:17:23.837Z,14.71
2022-09-28T06:18:16.923Z,18.55
2022-09-28T06:18:56.784Z,22.00
2022-09-28T06:19:36.867Z,18.15
2022-09-28T06:20:17.829Z,18.33
2022-09-28T06:20:58.208Z,15.74
2022-09-28T06:21:37.797Z,14.16
2022-09-28T06:22:18.005Z,14.79
2022-09-28T06:22:59.853Z,15.59
2022-09-28T06:23:40.739Z,18.15
2022-09-28T06:24:22.776Z,17.98
2022-09-28T06:25:02.939Z,14.38
2022-09-28T06:25:43.784Z,13.86
2022-09-28T06:26:23.855Z,12.98
2022-09-28T06:27:03.804Z,12.88
2022-09-28T06:27:43.913Z,13.55
2022-09-28T06:28:23.882Z,15.44
2022-09-28T06:29:03.926Z,12.05
2022-09-28T06:29:43.825Z,9.90
2022-09-28T06:30:27.123Z,10.00
2022-09-28T06:31:07.824Z,10.15
2022-09-28T06:31:47.835Z,10.14
2022-09-28T06:32:27.743Z,10.51
2022-09-28T06:33:08.908Z,9.40
2022-09-28T06:33:48.808Z,9.60
2022-09-28T06:34:30.173Z,8.89
2022-09-28T06:35:10.763Z,8.88
2022-09-28T06:35:52.073Z,9.34
2022-09-28T06:36:31.755Z,9.74
2022-09-28T06:37:11.838Z,10.04
2022-09-28T06:37:51.785Z,9.54
2022-09-28T06:38:31.863Z,9.29
2022-09-28T06:39:12.789Z,10.07
2022-09-28T06:39:52.926Z,9.89
2022-09-28T06:40:33.874Z,10.36
2022-09-28T06:41:13.865Z,10.19
2022-09-28T06:41:53.766Z,8.71
2022-09-28T06:42:33.906Z,8.89
2022-09-28T06:43:17.775Z,9.06
2022-09-28T06:43:57.842Z,9.56
2022-09-28T06:44:38.794Z,9.71
2022-09-28T06:45:21.735Z,9.24
2022-09-28T06:46:02.843Z,8.57
2022-09-28T06:46:42.864Z,9.29
2022-09-28T06:47:23.775Z,10.00
2022-09-28T06:48:18.784Z,10.45
2022-09-28T06:49:19.335Z,9.45
2022-09-28T06:50:01.795Z,9.70
2022-09-28T06:50:45.431Z,10.18
2022-09-28T06:51:26.791Z,8.76
2022-09-28T06:52:06.878Z,9.10
2022-09-28T06:52:46.775Z,9.46
2022-09-28T06:53:28.170Z,9.84
2022-09-28T06:54:07.747Z,7.57
2022-09-28T06:54:47.862Z,7.37
2022-09-28T06:55:28.823Z,7.66
2022-09-28T06:56:09.152Z,9.01
2022-09-28T06:56:48.769Z,10.40
2022-09-28T06:57:28.871Z,8.54
2022-09-28T06:58:10.756Z,8.39
2022-09-28T06:58:50.882Z,7.85
2022-09-28T06:59:30.755Z,7.41
2022-09-28T07:00:11.850Z,7.89
2022-09-28T07:00:52.868Z,8.52
2022-09-28T07:01:33.050Z,8.23
2022-09-28T07:02:14.851Z,8.01
2022-09-28T07:02:55.244Z,8.69
2022-09-28T07:03:34.777Z,8.02
2022-09-28T07:04:14.849Z,8.20
2022-09-28T07:04:55.760Z,8.05
2022-09-28T07:05:36.798Z,7.79
2022-09-28T07:06:18.803Z,7.80
2022-09-28T07:06:59.727Z,7.85
2022-09-28T07:07:40.876Z,7.51
2022-09-28T07:08:24.665Z,7.64
2022-09-28T07:09:28.705Z,7.47
2022-09-28T07:10:08.841Z,7.47
2022-09-28T07:10:50.737Z,8.01
2022-09-28T07:11:38.848Z,8.48
2022-09-28T07:12:32.763Z,8.90
2022-09-28T07:13:50.413Z,10.06
2022-09-28T07:14:47.657Z,9.96
2022-09-28T07:15:44.757Z,8.96
2022-09-28T07:17:07.205Z,9.52
2022-09-28T07:18:01.090Z,9.32
2022-09-28T07:18:56.737Z,8.99
2022-09-28T07:19:50.841Z,10.71
2022-09-28T07:20:53.367Z,10.18
2022-09-28T07:21:56.982Z,8.15
2022-09-28T07:22:56.145Z,8.50
2022-09-28T07:23:54.092Z,9.14
2022-09-28T07:24:50.800Z,8.59
2022-09-28T07:25:50.934Z,9.07
2022-09-28T07:26:44.783Z,8.65
2022-09-28T07:27:28.929Z,9.60
2022-09-28T07:28:11.875Z,9.31
2022-09-28T07:28:51.772Z,9.75
2022-09-28T07:29:31.839Z,9.06
2022-09-28T07:30:13.771Z,9.14
2022-09-28T07:30:53.899Z,9.50
2022-09-28T07:31:33.791Z,9.99
2022-09-28T07:32:13.789Z,9.17
2022-09-28T07:32:55.865Z,9.29
2022-09-28T07:33:36.131Z,9.27
2022-09-28T07:34:15.916Z,9.06
2022-09-28T07:34:58.866Z,8.45
2022-09-28T07:35:42.755Z,8.59
2022-09-28T07:36:22.948Z,8.23
2022-09-28T07:37:05.741Z,8.05
2022-09-28T07:37:45.792Z,7.46
2022-09-28T07:38:25.772Z,7.65
2022-09-28T07:39:05.855Z,8.11
2022-09-28T07:40:04.848Z,8.70
2022-09-28T07:41:03.487Z,8.59
2022-09-28T07:41:45.734Z,7.75
2022-09-28T07:42:28.016Z,7.59
2022-09-28T07:43:12.699Z,7.86
2022-09-28T07:43:52.729Z,7.69
2022-09-28T07:44:26.818Z,8.55
2022-09-28T07:45:14.720Z,8.07
2022-09-28T07:45:49.845Z,7.75
2022-09-28T07:46:37.771Z,6.64
2022-09-28T07:47:11.798Z,6.96
2022-09-28T07:48:02.833Z,7.28
2022-09-28T07:48:38.027Z,6.97
2022-09-28T07:49:18.885Z,7.05
2022-09-28T07:50:02.832Z,8.13
2022-09-28T07:50:42.689Z,8.29
2022-09-28T07:51:22.905Z,8.80
2022-09-28T07:52:02.742Z,7.46
2022-09-28T07:52:44.284Z,7.41
2022-09-28T07:53:26.719Z,7.64
2022-09-28T07:54:06.830Z,7.43
2022-09-28T07:54:46.744Z,8.63
2022-09-28T07:55:26.854Z,6.90
2022-09-28T07:56:18.709Z,6.96
2022-09-28T07:56:58.822Z,7.11
2022-09-28T07:57:42.719Z,7.55
2022-09-28T07:58:22.822Z,7.20
2022-09-28T07:59:02.759Z,6.78
2022-09-28T07:59:43.709Z,6.86
2022-09-28T08:00:24.739Z,7.38
2022-09-28T08:01:04.905Z,7.15
2022-09-28T08:01:45.822Z,7.07
2022-09-28T08:02:26.803Z,7.86
2022-09-28T08:03:10.684Z,7.57
2022-09-28T08:03:56.130Z,7.60
2022-09-28T08:04:36.699Z,7.78
2022-09-28T08:05:16.819Z,8.07
2022-09-28T08:05:56.720Z,6.96
2022-09-28T08:06:36.846Z,7.28
2022-09-28T08:07:20.481Z,8.71
2022-09-28T08:08:04.778Z,8.57
2022-09-28T08:08:50.722Z,7.00
2022-09-28T08:09:30.836Z,7.21
2022-09-28T08:10:12.708Z,7.76
2022-09-28T08:10:53.167Z,8.11
2022-09-28T08:11:32.786Z,7.28
2022-09-28T08:12:12.862Z,6.46
2022-09-28T08:12:53.694Z,6.68
2022-09-28T08:13:33.980Z,6.94
2022-09-28T08:14:14.785Z,5.44
2022-09-28T08:14:55.769Z,6.34
2022-09-28T08:15:43.678Z,7.30
2022-09-28T08:16:23.959Z,7.76
2022-09-28T08:17:03.714Z,8.11
2022-09-28T08:17:43.856Z,7.96
2022-09-28T08:18:24.687Z,7.70
2022-09-28T08:19:04.753Z,6.49
2022-09-28T08:20:03.692Z,6.55
2022-09-28T08:21:02.490Z,7.16
2022-09-28T08:21:51.687Z,6.93
2022-09-28T08:22:31.714Z,5.46
2022-09-28T08:23:13.171Z,5.45
2022-09-28T08:23:59.677Z,5.78
2022-09-28T08:24:33.765Z,5.13
2022-09-28T08:25:20.679Z,5.60
2022-09-28T08:25:54.833Z,5.51
2022-09-28T08:26:41.660Z,5.53
2022-09-28T08:27:16.511Z,5.13
2022-09-28T08:27:56.691Z,5.57
2022-09-28T08:28:36.907Z,5.90
2022-09-28T08:29:17.647Z,5.64
2022-09-28T08:29:57.729Z,6.07
2022-09-28T08:30:37.708Z,7.00
2022-09-28T08:31:17.893Z,6.20
2022-09-28T08:32:01.372Z,8.16
2022-09-28T08:32:42.517Z,5.15
2022-09-28T08:33:24.795Z,4.74
2022-09-28T08:34:04.847Z,4.91
2022-09-28T08:34:46.641Z,4.66
2022-09-28T08:35:26.731Z,5.35
2022-09-28T08:36:08.637Z,5.28
2022-09-28T08:36:48.770Z,5.61
2022-09-28T08:37:29.667Z,5.40
2022-09-28T08:38:09.733Z,4.97
2022-09-28T08:38:49.736Z,5.18
2022-09-28T08:39:29.779Z,5.10
2022-09-28T08:40:10.653Z,4.76
2022-09-28T08:41:09.745Z,4.47
2022-09-28T08:41:56.653Z,4.78
2022-09-28T08:42:55.638Z,5.16
2022-09-28T08:43:49.842Z,5.22
2022-09-28T08:44:52.655Z,5.24
2022-09-28T08:45:46.701Z,4.96
2022-09-28T08:46:48.637Z,4.64
2022-09-28T08:48:25.642Z,4.22
2022-09-28T08:49:25.990Z,5.76
2022-09-28T08:50:00.761Z,7.68
2022-09-28T08:51:03.664Z,5.69
2022-09-28T08:51:39.773Z,4.86
2022-09-28T08:52:29.643Z,3.85
2022-09-28T08:53:33.001Z,4.29
2022-09-28T08:54:37.655Z,4.30
2022-09-28T08:55:17.734Z,3.83
2022-09-28T08:56:05.649Z,3.96
2022-09-28T08:56:53.755Z,4.31
2022-09-28T08:57:57.534Z,4.09
2022-09-28T08:58:35.764Z,4.93
2022-09-28T08:59:27.649Z,5.05
2022-09-28T09:00:11.815Z,3.67
2022-09-28T09:01:06.684Z,3.49
2022-09-28T09:02:13.665Z,3.40
2022-09-28T09:03:07.660Z,2.71
2022-09-28T09:04:02.647Z,3.16
2022-09-28T09:04:56.732Z,3.28
2022-09-28T09:06:06.714Z,3.00
2022-09-28T09:07:17.075Z,2.94
2022-09-28T09:08:00.668Z,2.91
2022-09-28T09:08:52.757Z,3.25
2022-09-28T09:09:52.640Z,3.20
2022-09-28T09:11:14.665Z,4.01
2022-09-28T09:12:23.619Z,4.80
2022-09-28T09:13:22.627Z,5.05
2022-09-28T09:14:44.625Z,5.28
2022-09-28T09:15:50.736Z,6.04
2022-09-28T09:17:05.699Z,5.93
2022-09-28T09:18:04.735Z,5.26
2022-09-28T09:19:14.648Z,4.59
2022-09-28T09:20:05.837Z,3.76
2022-09-28T09:21:04.599Z,3.94
2022-09-28T09:21:43.837Z,3.56
2022-09-28T09:22:47.668Z,3.41
2022-09-28T09:23:31.799Z,3.54
2022-09-28T09:24:33.663Z,4.56
2022-09-28T09:25:26.685Z,4.35
2022-09-28T09:26:26.659Z,5.13
2022-09-28T09:27:12.757Z,5.05
2022-09-28T09:28:32.713Z,4.91
2022-09-28T09:29:17.684Z,4.85
2022-09-28T09:30:20.608Z,4.06
2022-09-28T09:31:27.809Z,3.24
2022-09-28T09:32:32.617Z,3.29
2022-09-28T09:33:11.712Z,2.83
2022-09-28T09:34:03.797Z,2.63
2022-09-28T09:34:51.736Z,3.01
2022-09-28T09:35:52.660Z,3.76
2022-09-28T09:36:53.755Z,2.67
2022-09-28T09:37:56.504Z,2.92
2022-09-28T09:38:45.690Z,2.61
2022-09-28T09:39:31.641Z,2.39
2022-09-28T09:40:17.748Z,2.71
2022-09-28T09:41:36.590Z,2.64
2022-09-28T09:42:48.224Z,2.33
2022-09-28T09:44:05.611Z,2.56
2022-09-28T09:45:10.630Z,2.51
2022-09-28T09:45:50.767Z,2.30
2022-09-28T09:46:55.671Z,2.69
2022-09-28T09:48:28.001Z,2.80
2022-09-28T09:49:23.600Z,2.65
2022-09-28T09:50:18.644Z,2.38
2022-09-28T09:51:21.621Z,1.73
2022-09-28T09:53:38.780Z,2.42
2022-09-28T09:54:47.580Z,2.65
2022-09-28T09:55:48.624Z,3.21
2022-09-28T09:56:28.724Z,3.59
2022-09-28T09:57:48.620Z,3.20
2022-09-28T09:58:35.699Z,2.91
2022-09-28T09:59:30.572Z,3.01
2022-09-28T10:00:05.675Z,2.99
2022-09-28T10:00:54.640Z,2.11
2022-09-28T10:01:36.768Z,2.24
2022-09-28T10:02:36.655Z,1.89
2022-09-28T10:03:10.675Z,2.89
2022-09-28T10:03:58.566Z,3.05
2022-09-28T10:04:44.508Z,2.50
2022-09-28T10:05:34.581Z,2.56
2022-09-28T10:06:40.617Z,2.17
2022-09-28T10:07:42.570Z,2.41
2022-09-28T10:08:37.619Z,2.86
2022-09-28T10:09:37.587Z,2.64